Time;durP1;ratioP1;P1;durP2;ratioP2;P2;SDS_P1;SDS_P2;PMS_P1;PMS_P2;Temp;Humidity;BMP_temperature;BMP_pressure;BME280_temperature;BME280_humidity;BME280_pressure;Samples;Min_cycle;Max_cycle;Signal;HPM_P1;HPM_P2
2022/08/01 00:01:51;;;;;;;11.43;6.10;;;20.00;99.70;;;;;;5073178;28;20029;-76
2022/08/01 00:04:17;;;;;;;10.38;6.35;;;20.00;99.60;;;;;;5055307;28;20059;-76
2022/08/01 00:06:43;;;;;;;11.90;6.22;;;20.00;99.70;;;;;;5055109;28;20104;-76
2022/08/01 00:09:08;;;;;;;9.63;6.13;;;20.00;99.60;;;;;;5055260;28;20465;-76
2022/08/01 00:11:34;;;;;;;10.45;6.47;;;19.90;99.60;;;;;;5073406;28;20036;-76
2022/08/01 00:13:59;;;;;;;13.82;5.95;;;20.00;99.60;;;;;;5055129;28;20480;-76
2022/08/01 00:16:25;;;;;;;9.45;4.82;;;19.90;99.60;;;;;;5054781;28;20058;-77
2022/08/01 00:18:51;;;;;;;9.82;4.82;;;19.90;99.60;;;;;;5054908;28;20025;-77
2022/08/01 00:21:17;;;;;;;9.20;4.93;;;19.90;99.50;;;;;;5071548;28;20025;-76
2022/08/01 00:23:45;;;;;;;8.18;5.28;;;19.90;99.50;;;;;;5055211;28;20056;-76
2022/08/01 00:26:14;;;;;;;9.98;6.10;;;19.90;99.50;;;;;;5071538;28;20029;-76
2022/08/01 00:28:40;;;;;;;9.90;6.38;;;19.90;99.40;;;;;;5072800;28;20503;-76
2022/08/01 00:31:06;;;;;;;11.85;7.00;;;19.90;99.40;;;;;;5071424;28;20119;-77
2022/08/01 00:33:32;;;;;;;11.15;8.25;;;19.90;99.40;;;;;;5072706;28;20117;-77
2022/08/01 00:35:58;;;;;;;13.65;8.18;;;19.90;99.40;;;;;;5054832;28;20052;-76
2022/08/01 00:38:23;;;;;;;11.38;8.32;;;19.90;99.40;;;;;;5055359;28;20455;-76
2022/08/01 00:40:49;;;;;;;11.23;8.43;;;19.90;99.30;;;;;;5054679;28;20025;-77
2022/08/01 00:43:15;;;;;;;11.65;8.63;;;19.90;99.60;;;;;;5073003;28;20465;-76
2022/08/01 00:45:41;;;;;;;13.02;9.20;;;19.90;99.30;;;;;;5055387;28;20469;-75
2022/08/01 00:48:06;;;;;;;12.50;9.50;;;19.90;99.30;;;;;;5058322;28;20123;-77
2022/08/01 00:50:32;;;;;;;15.25;10.25;;;19.90;99.20;;;;;;5075161;28;20048;-77
2022/08/01 00:52:59;;;;;;;13.93;9.35;;;19.90;99.40;;;;;;5076232;28;20504;-76
2022/08/01 00:55:26;;;;;;;18.02;10.27;;;19.80;99.20;;;;;;5058489;28;20025;-76
2022/08/01 00:57:51;;;;;;;15.52;10.73;;;19.80;99.20;;;;;;5075938;28;20024;-75
2022/08/01 01:00:17;;;;;;;14.93;10.65;;;19.90;99.20;;;;;;5075745;28;20038;-76
2022/08/01 01:02:43;;;;;;;14.35;10.50;;;19.80;99.20;;;;;;5074203;28;20493;-77
2022/08/01 01:05:09;;;;;;;16.27;10.93;;;19.80;99.10;;;;;;5058094;28;20123;-77
2022/08/01 01:07:47;;;;;;;17.00;11.10;;;19.80;99.10;;;;;;5058233;28;20553;-77
2022/08/01 01:10:32;;;;;;;16.23;11.93;;;19.80;99.10;;;;;;5074834;28;20055;-77
2022/08/01 01:13:16;;;;;;;16.92;11.88;;;19.80;99.10;;;;;;5058397;28;20028;-77
2022/08/01 01:15:49;;;;;;;16.80;11.77;;;19.80;99.10;;;;;;5057667;28;20042;-77
2022/08/01 01:18:32;;;;;;;16.55;11.15;;;19.70;99.10;;;;;;5058021;28;20056;-77
2022/08/01 01:21:06;;;;;;;15.95;10.25;;;19.80;99.20;;;;;;5057745;28;20033;-77
2022/08/01 01:23:59;;;;;;;13.55;9.45;;;19.80;99.10;;;;;;5075546;28;20465;-77
2022/08/01 01:26:51;;;;;;;13.45;8.57;;;19.80;99.10;;;;;;5074551;28;20468;-76
2022/08/01 01:29:39;;;;;;;12.77;8.45;;;19.70;99.10;;;;;;5074414;28;20033;-77
2022/08/01 01:32:12;;;;;;;11.20;7.55;;;19.80;99.40;;;;;;5075488;28;20021;-77
2022/08/01 01:34:42;;;;;;;12.98;7.88;;;19.70;99.10;;;;;;5075742;28;20020;-77
2022/08/01 01:37:15;;;;;;;11.00;6.97;;;19.70;99.10;;;;;;5074100;28;20020;-77
2022/08/01 01:39:42;;;;;;;14.10;8.30;;;19.70;99.10;;;;;;5074493;28;20023;-76
2022/08/01 01:42:09;;;;;;;14.27;8.38;;;19.70;99.10;;;;;;5074301;28;20039;-77
2022/08/01 01:44:36;;;;;;;15.85;8.73;;;19.70;99.20;;;;;;5057570;28;20032;-76
2022/08/01 01:47:04;;;;;;;11.90;7.72;;;19.70;99.20;;;;;;5075083;28;20112;-75
2022/08/01 01:49:31;;;;;;;14.10;7.82;;;19.70;99.20;;;;;;5073998;28;20078;-76
2022/08/01 01:52:00;;;;;;;13.63;7.47;;;19.70;99.30;;;;;;5074228;28;20024;-76
2022/08/01 01:54:31;;;;;;;15.93;8.25;;;19.70;99.40;;;;;;5057253;28;20381;-77
2022/08/01 01:57:00;;;;;;;16.88;8.95;;;19.60;99.30;;;;;;5074592;28;20476;-75
2022/08/01 01:59:30;;;;;;;14.07;7.32;;;19.60;99.40;;;;;;5074799;28;20039;-76
2022/08/01 02:02:00;;;;;;;19.90;8.82;;;19.60;99.40;;;;;;5074820;28;20025;-76
2022/08/01 02:04:27;;;;;;;15.52;8.68;;;19.60;99.50;;;;;;5073756;28;20044;-77
2022/08/01 02:06:54;;;;;;;16.67;7.88;;;19.60;99.50;;;;;;5056733;28;20119;-75
2022/08/01 02:09:21;;;;;;;14.93;8.05;;;19.60;99.50;;;;;;5073626;28;20464;-75
2022/08/01 02:11:51;;;;;;;17.65;8.85;;;19.60;99.50;;;;;;5057115;28;20032;-76
2022/08/01 02:14:18;;;;;;;15.00;7.70;;;19.50;99.50;;;;;;5074447;28;20096;-76
2022/08/01 02:16:48;;;;;;;15.63;8.45;;;19.50;99.60;;;;;;5073273;28;20036;-77
2022/08/01 02:19:16;;;;;;;14.23;6.95;;;19.50;99.60;;;;;;5074611;28;20055;-76
2022/08/01 02:22:00;;;;;;;13.70;7.10;;;19.50;99.60;;;;;;5073316;28;20054;-77
2022/08/01 02:24:54;;;;;;;16.30;7.03;;;19.50;99.70;;;;;;5073494;28;20032;-76
2022/08/01 02:27:51;;;;;;;16.00;7.80;;;19.50;99.70;;;;;;5090251;28;20477;-77
2022/08/01 02:30:17;;;;;;;14.48;6.82;;;19.50;99.70;;;;;;5074363;28;20024;-76
2022/08/01 02:32:47;;;;;;;15.75;7.60;;;19.50;99.70;;;;;;5089889;28;20496;-77
2022/08/01 02:35:35;;;;;;;12.85;6.22;;;19.40;99.90;;;;;;5072860;28;20065;-76
2022/08/01 02:38:03;;;;;;;11.38;5.55;;;19.50;99.80;;;;;;5074415;28;20032;-77
2022/08/01 02:40:32;;;;;;;16.65;6.30;;;19.50;99.80;;;;;;5074340;28;20029;-77
2022/08/01 02:43:01;;;;;;;10.07;5.25;;;19.40;99.80;;;;;;5073970;28;20024;-77
2022/08/01 02:45:28;;;;;;;14.52;6.38;;;19.40;99.90;;;;;;5074141;28;20166;-77
2022/08/01 02:47:58;;;;;;;11.57;5.68;;;19.40;99.80;;;;;;5073095;28;20021;-77
2022/08/01 02:50:26;;;;;;;11.23;5.82;;;19.40;99.90;;;;;;5073929;28;20021;-77
2022/08/01 02:52:53;;;;;;;10.50;5.38;;;19.40;99.90;;;;;;5072363;28;20025;-77
2022/08/01 02:55:20;;;;;;;11.23;5.55;;;19.40;99.90;;;;;;5074033;28;20016;-77
2022/08/01 02:57:47;;;;;;;11.68;5.60;;;19.40;99.90;;;;;;5073911;28;20078;-76
2022/08/01 03:00:15;;;;;;;10.65;5.60;;;19.40;99.90;;;;;;5072660;28;20032;-77
2022/08/01 03:02:43;;;;;;;10.35;5.55;;;19.40;99.90;;;;;;5056062;28;20132;-77
2022/08/01 03:05:11;;;;;;;11.07;5.72;;;19.40;99.90;;;;;;5073680;28;20032;-76
2022/08/01 03:07:37;;;;;;;11.05;5.95;;;19.30;99.90;;;;;;5072371;28;20439;-76
2022/08/01 03:10:03;;;;;;;12.57;5.85;;;19.30;99.90;;;;;;5073289;28;20031;-76
2022/08/01 03:12:32;;;;;;;9.65;5.00;;;19.30;99.90;;;;;;5072550;28;20058;-76
2022/08/01 03:15:02;;;;;;;12.50;5.97;;;19.20;99.90;;;;;;5072286;28;20069;-77
2022/08/01 03:17:29;;;;;;;10.27;4.90;;;19.20;99.90;;;;;;5072393;28;20024;-76
2022/08/01 03:19:57;;;;;;;11.48;5.10;;;19.20;99.90;;;;;;5056045;28;20032;-76
2022/08/01 03:22:25;;;;;;;9.43;5.03;;;19.20;99.90;;;;;;5072451;28;20073;-76
2022/08/01 03:24:53;;;;;;;10.43;4.80;;;19.20;99.90;;;;;;5072162;28;20121;-76
2022/08/01 03:27:20;;;;;;;8.48;4.72;;;19.20;99.90;;;;;;5073344;28;20126;-76
2022/08/01 03:29:48;;;;;;;9.63;5.40;;;19.20;99.90;;;;;;5055283;28;20486;-77
2022/08/01 03:32:16;;;;;;;10.48;5.38;;;19.30;99.90;;;;;;5072203;28;20025;-77
2022/08/01 03:34:42;;;;;;;10.80;5.50;;;19.30;99.90;;;;;;5071910;28;20028;-76
2022/08/01 03:37:19;;;;;;;8.60;4.97;;;19.30;99.90;;;;;;5056130;28;20050;-75
2022/08/01 03:39:49;;;;;;;9.80;5.20;;;19.20;99.90;;;;;;5073808;28;20025;-77
2022/08/01 03:42:23;;;;;;;9.25;5.00;;;19.20;99.90;;;;;;5071948;28;20162;-77
2022/08/01 03:44:54;;;;;;;10.70;5.18;;;19.20;99.90;;;;;;5073481;28;20196;-77
2022/08/01 03:47:24;;;;;;;10.50;5.43;;;19.20;99.90;;;;;;5073379;28;20376;-77
2022/08/01 03:49:52;;;;;;;9.30;4.90;;;19.20;99.90;;;;;;5073578;28;20027;-76
2022/08/01 03:52:19;;;;;;;12.35;5.68;;;19.20;99.90;;;;;;5072483;28;20032;-77
2022/08/01 03:54:48;;;;;;;7.97;4.43;;;19.20;99.90;;;;;;5055430;28;20027;-76
2022/08/01 03:57:15;;;;;;;10.43;5.55;;;19.20;99.90;;;;;;5071804;28;20017;-77
2022/08/01 03:59:42;;;;;;;8.98;5.15;;;19.20;99.90;;;;;;5038841;28;20495;-76
2022/08/01 04:02:08;;;;;;;10.25;5.43;;;19.20;99.90;;;;;;5073326;28;20024;-77
2022/08/01 04:04:34;;;;;;;9.20;5.45;;;19.20;99.90;;;;;;5073090;28;20055;-77
2022/08/01 04:07:04;;;;;;;9.48;5.03;;;19.20;99.90;;;;;;5071734;28;20028;-77
2022/08/01 04:09:31;;;;;;;9.95;5.13;;;19.20;99.90;;;;;;5055629;28;20393;-77
2022/08/01 04:11:59;;;;;;;9.18;4.82;;;19.20;99.90;;;;;;5055649;28;20025;-77
2022/08/01 04:14:26;;;;;;;9.05;5.60;;;19.20;99.90;;;;;;5070578;28;20107;-76
2022/08/01 04:16:51;;;;;;;11.18;5.63;;;19.30;99.90;;;;;;5067550;28;20028;-77
2022/08/01 04:19:17;;;;;;;9.68;5.28;;;19.20;99.90;;;;;;5054695;28;20028;-77
2022/08/01 04:21:43;;;;;;;10.63;5.13;;;19.20;99.90;;;;;;5056976;28;20031;-78
2022/08/01 04:24:14;;;;;;;7.63;4.78;;;19.30;99.90;;;;;;5047469;28;20397;-77
2022/08/01 04:26:43;;;;;;;9.32;5.40;;;19.30;99.90;;;;;;5055013;28;20476;-77
2022/08/01 04:29:10;;;;;;;7.93;4.65;;;19.20;99.90;;;;;;5057977;28;20471;-77
2022/08/01 04:31:39;;;;;;;8.27;5.32;;;19.30;99.90;;;;;;5042099;28;20035;-77
2022/08/01 04:34:06;;;;;;;9.13;5.60;;;19.20;99.90;;;;;;5058457;28;20070;-76
2022/08/01 04:36:36;;;;;;;12.48;5.80;;;19.20;99.90;;;;;;5076474;28;20032;-84
2022/08/01 04:39:04;;;;;;;9.27;5.35;;;19.20;99.90;;;;;;5058331;28;20024;-84
2022/08/01 04:41:31;;;;;;;7.90;4.63;;;19.20;99.90;;;;;;5058929;28;20442;-84
2022/08/01 04:43:59;;;;;;;9.23;5.55;;;19.20;99.90;;;;;;5076290;28;20384;-83
2022/08/01 04:46:26;;;;;;;9.45;5.78;;;19.20;99.90;;;;;;5076295;28;20438;-84
2022/08/01 04:48:54;;;;;;;8.13;4.82;;;19.20;99.90;;;;;;5058198;28;20048;-84
2022/08/01 04:51:22;;;;;;;8.05;4.95;;;19.30;99.90;;;;;;5042060;28;20024;-85
2022/08/01 04:53:48;;;;;;;12.20;6.70;;;19.30;99.90;;;;;;5058145;28;20023;-78
2022/08/01 04:56:14;;;;;;;10.95;5.93;;;19.20;99.90;;;;;;5041744;28;20017;-76
2022/08/01 04:58:43;;;;;;;9.25;5.70;;;19.30;99.90;;;;;;5076137;28;20026;-76
2022/08/01 05:01:10;;;;;;;10.32;5.72;;;19.30;99.90;;;;;;5058258;28;20059;-76
2022/08/01 05:03:35;;;;;;;11.02;6.05;;;19.30;99.90;;;;;;5058044;28;20558;-76
2022/08/01 05:06:01;;;;;;;10.25;5.72;;;19.30;99.90;;;;;;5041146;28;20060;-76
2022/08/01 05:08:27;;;;;;;10.57;5.82;;;19.30;99.90;;;;;;5041284;28;20399;-76
2022/08/01 05:10:52;;;;;;;10.30;5.57;;;19.30;99.90;;;;;;5041295;28;20032;-76
2022/08/01 05:13:19;;;;;;;9.68;5.25;;;19.30;99.90;;;;;;5041193;28;20031;-76
2022/08/01 05:15:44;;;;;;;11.48;6.28;;;19.30;99.90;;;;;;5057580;28;20436;-76
2022/08/01 05:18:11;;;;;;;8.55;4.95;;;19.30;99.90;;;;;;5075804;28;20074;-76
2022/08/01 05:20:37;;;;;;;8.70;4.78;;;19.40;99.90;;;;;;5057864;28;20028;-76
2022/08/01 05:23:04;;;;;;;8.57;4.70;;;19.40;99.90;;;;;;5040978;28;20029;-76
2022/08/01 05:25:29;;;;;;;8.43;5.00;;;19.40;99.90;;;;;;5057661;28;20039;-77
2022/08/01 05:27:55;;;;;;;8.80;4.93;;;19.40;99.90;;;;;;5075498;28;20021;-76
2022/08/01 05:30:21;;;;;;;8.27;4.05;;;19.40;99.90;;;;;;5041147;28;20024;-76
2022/08/01 05:32:46;;;;;;;9.20;4.97;;;19.40;99.90;;;;;;5039752;28;20579;-76
2022/08/01 05:35:12;;;;;;;7.53;3.92;;;19.40;99.90;;;;;;5074065;28;20039;-77
2022/08/01 05:37:37;;;;;;;8.18;4.40;;;19.50;99.90;;;;;;5040812;28;20025;-76
2022/08/01 05:40:04;;;;;;;9.02;3.72;;;19.50;99.90;;;;;;5057618;28;20047;-76
2022/08/01 05:42:30;;;;;;;6.03;3.70;;;19.50;99.90;;;;;;5057130;28;20456;-76
2022/08/01 05:44:56;;;;;;;7.03;4.07;;;19.50;99.90;;;;;;5040694;28;20111;-77
2022/08/01 05:47:21;;;;;;;6.43;3.50;;;19.60;99.90;;;;;;5057292;28;20082;-83
2022/08/01 05:49:47;;;;;;;5.72;3.30;;;19.60;99.90;;;;;;5057090;28;20123;-83
2022/08/01 05:52:12;;;;;;;5.25;3.03;;;19.70;99.90;;;;;;5057099;28;20123;-83
2022/08/01 05:54:38;;;;;;;7.47;4.07;;;19.70;99.90;;;;;;5040519;28;20024;-83
2022/08/01 05:57:04;;;;;;;6.53;3.33;;;19.80;99.90;;;;;;5075005;28;20050;-83
2022/08/01 05:59:30;;;;;;;6.65;3.28;;;19.80;99.90;;;;;;5057131;28;20392;-82
2022/08/01 06:01:56;;;;;;;6.25;3.00;;;19.80;99.90;;;;;;5073517;28;20035;-81
2022/08/01 06:04:21;;;;;;;4.57;2.40;;;19.80;99.90;;;;;;5056726;28;20040;-83
2022/08/01 06:06:47;;;;;;;3.60;1.60;;;19.80;99.90;;;;;;5056734;28;20094;-84
2022/08/01 06:09:13;;;;;;;3.70;1.55;;;19.70;99.90;;;;;;5074176;28;20048;-83
2022/08/01 06:11:39;;;;;;;5.28;1.90;;;19.70;99.90;;;;;;5056577;28;20029;-83
2022/08/01 06:14:04;;;;;;;3.50;1.30;;;19.80;99.90;;;;;;5065677;28;20029;-84
2022/08/01 06:16:30;;;;;;;2.28;1.15;;;19.70;99.90;;;;;;5056218;28;20103;-83
2022/08/01 06:18:56;;;;;;;3.95;1.20;;;19.80;99.90;;;;;;5048830;28;20036;-84
2022/08/01 06:21:21;;;;;;;3.15;1.45;;;19.80;99.90;;;;;;5055571;28;20028;-83
2022/08/01 06:23:47;;;;;;;2.15;1.00;;;19.80;99.90;;;;;;5056496;28;20039;-84
2022/08/01 06:26:12;;;;;;;1.70;0.80;;;19.90;99.90;;;;;;5039397;28;20027;-83
2022/08/01 06:28:38;;;;;;;1.50;0.80;;;19.90;99.90;;;;;;5023195;28;20032;-85
2022/08/01 06:31:04;;;;;;;1.85;0.95;;;20.00;99.90;;;;;;5074535;28;20021;-84
2022/08/01 06:33:30;;;;;;;1.77;0.70;;;20.00;99.90;;;;;;5040161;28;20082;-76
2022/08/01 06:35:56;;;;;;;1.70;0.80;;;20.10;99.90;;;;;;5039565;28;20016;-76
2022/08/01 06:38:22;;;;;;;2.08;0.60;;;20.20;99.90;;;;;;5056442;28;20443;-84
2022/08/01 06:40:47;;;;;;;1.45;0.63;;;20.20;99.90;;;;;;5074156;28;20541;-85
2022/08/01 06:43:13;;;;;;;1.50;0.50;;;20.40;99.70;;;;;;5039156;28;20029;-85
2022/08/01 06:45:40;;;;;;;0.77;0.47;;;20.40;99.60;;;;;;5023302;28;20032;-85
2022/08/01 06:48:05;;;;;;;1.55;0.68;;;20.40;99.50;;;;;;5074151;28;20029;-85
2022/08/01 06:50:32;;;;;;;1.67;0.60;;;20.50;99.30;;;;;;5073915;28;20025;-85
2022/08/01 06:52:57;;;;;;;1.15;0.52;;;20.50;98.90;;;;;;5056258;28;20108;-85
2022/08/01 06:55:23;;;;;;;1.05;0.45;;;20.60;99.00;;;;;;5039820;28;20111;-85
2022/08/01 06:57:51;;;;;;;1.25;0.60;;;20.60;98.50;;;;;;5073165;28;20370;-85
2022/08/01 07:00:22;;;;;;;1.23;0.50;;;20.50;98.40;;;;;;5053890;28;20037;-87
2022/08/01 07:02:49;;;;;;;3.15;0.73;;;20.50;98.30;;;;;;5019696;28;20033;-84
2022/08/01 07:05:14;;;;;;;1.30;0.50;;;20.50;98.20;;;;;;5035824;28;20437;-85
2022/08/01 07:07:40;;;;;;;1.63;0.60;;;20.50;98.20;;;;;;5019318;28;20041;-85
2022/08/01 07:10:08;;;;;;;1.55;0.52;;;20.60;98.20;;;;;;5019768;28;20075;-84
2022/08/01 07:12:36;;;;;;;1.52;0.40;;;20.50;98.00;;;;;;5038445;28;22134;-84
2022/08/01 07:15:03;;;;;;;3.20;0.70;;;20.60;98.00;;;;;;5038967;28;20100;-85
2022/08/01 07:17:28;;;;;;;1.58;0.65;;;20.60;98.00;;;;;;5056001;28;20059;-85
2022/08/01 07:19:54;;;;;;;1.80;0.75;;;20.70;98.00;;;;;;5055776;28;20025;-85
2022/08/01 07:22:20;;;;;;;1.55;0.60;;;20.70;97.90;;;;;;5055054;28;20028;-85
2022/08/01 07:24:46;;;;;;;2.00;0.50;;;20.70;97.80;;;;;;5055222;28;20059;-86
2022/08/01 07:27:11;;;;;;;0.88;0.55;;;20.80;97.80;;;;;;5025928;28;20480;-85
2022/08/01 07:29:37;;;;;;;1.58;0.60;;;20.90;97.60;;;;;;5038808;28;20020;-85
2022/08/01 07:32:03;;;;;;;3.10;0.60;;;20.90;97.50;;;;;;5055344;28;20035;-84
2022/08/01 07:34:28;;;;;;;1.15;0.60;;;21.00;97.40;;;;;;5039083;28;20036;-84
2022/08/01 07:36:54;;;;;;;1.55;0.50;;;21.00;97.30;;;;;;5056395;28;20021;-78
2022/08/01 07:39:20;;;;;;;1.08;0.43;;;21.10;97.20;;;;;;5038743;28;20025;-78
2022/08/01 07:41:46;;;;;;;4.18;0.50;;;21.10;97.00;;;;;;5072015;28;20037;-78
2022/08/01 07:44:12;;;;;;;2.00;0.50;;;21.10;96.90;;;;;;5055449;28;20031;-77
2022/08/01 07:46:37;;;;;;;1.88;0.57;;;21.10;96.70;;;;;;5022362;28;20021;-78
2022/08/01 07:49:03;;;;;;;1.30;0.50;;;21.10;96.60;;;;;;5055091;28;20044;-78
2022/08/01 07:51:29;;;;;;;2.50;0.60;;;21.10;96.50;;;;;;5038760;28;20453;-78
2022/08/01 07:53:54;;;;;;;2.67;0.50;;;21.10;96.40;;;;;;5073188;28;20025;-78
2022/08/01 07:56:20;;;;;;;2.45;0.50;;;21.10;96.40;;;;;;5073766;28;20036;-79
2022/08/01 07:58:46;;;;;;;1.27;0.47;;;21.10;96.30;;;;;;5042693;28;20039;-78
2022/08/01 08:01:12;;;;;;;1.23;0.57;;;21.20;96.10;;;;;;5075979;28;20495;-78
2022/08/01 08:03:37;;;;;;;2.25;0.55;;;21.20;96.10;;;;;;5092894;28;20052;-78
2022/08/01 08:06:03;;;;;;;2.35;0.50;;;21.30;96.10;;;;;;5042410;28;20393;-78
2022/08/01 08:08:29;;;;;;;2.05;0.50;;;21.40;96.20;;;;;;5042401;28;20098;-78
2022/08/01 08:10:55;;;;;;;1.60;0.57;;;21.40;95.80;;;;;;5071011;28;20358;-78
2022/08/01 08:13:20;;;;;;;2.20;0.52;;;21.50;95.80;;;;;;5042356;28;20031;-77
2022/08/01 08:15:46;;;;;;;1.83;0.60;;;21.50;95.50;;;;;;5075513;28;20025;-84
2022/08/01 08:18:12;;;;;;;1.73;0.55;;;21.60;95.40;;;;;;5075570;28;20043;-83
2022/08/01 08:20:37;;;;;;;0.75;0.47;;;21.60;95.30;;;;;;5058748;28;20481;-84
2022/08/01 08:24:19;;;;;;;1.30;0.52;;;21.70;95.20;;;;;;5058663;28;20040;-83
2022/08/01 08:25:49;;;;;;;2.00;0.60;;;21.70;94.90;;;;;;5047751;28;20033;-83
2022/08/01 08:28:14;;;;;;;2.10;0.40;;;21.80;94.70;;;;;;5059293;28;20039;-84
2022/08/01 08:30:40;;;;;;;1.23;0.55;;;21.80;94.60;;;;;;5058806;28;20473;-83
2022/08/01 08:33:05;;;;;;;1.83;0.50;;;21.80;94.60;;;;;;5058644;28;20024;-84
2022/08/01 08:35:31;;;;;;;2.08;0.60;;;21.80;94.70;;;;;;5075558;28;20381;-83
2022/08/01 08:37:57;;;;;;;1.30;0.50;;;21.90;94.80;;;;;;5058470;28;20032;-84
2022/08/01 08:40:29;;;;;;;1.63;0.60;;;22.00;94.80;;;;;;5042146;28;20029;-84
2022/08/01 08:42:56;;;;;;;1.17;0.60;;;22.00;94.80;;;;;;5076269;28;20473;-85
2022/08/01 08:45:22;;;;;;;1.95;0.50;;;22.00;94.60;;;;;;5041953;28;20039;-84
2022/08/01 08:47:49;;;;;;;1.23;0.40;;;22.10;94.50;;;;;;5058416;28;20033;-85
2022/08/01 08:50:15;;;;;;;1.73;0.50;;;22.20;94.50;;;;;;5058261;28;20503;-84
2022/08/01 08:52:43;;;;;;;1.05;0.40;;;22.30;94.40;;;;;;5021795;28;20095;-84
2022/08/01 08:55:10;;;;;;;1.70;0.55;;;22.40;94.30;;;;;;5054755;28;20009;-85
2022/08/01 08:57:39;;;;;;;0.80;0.40;;;22.50;94.10;;;;;;5054988;28;20029;-84
2022/08/01 09:00:06;;;;;;;1.38;0.50;;;22.60;93.80;;;;;;5038355;28;20029;-85
2022/08/01 09:02:32;;;;;;;2.22;0.55;;;22.70;93.50;;;;;;5056183;28;20033;-86
2022/08/01 09:04:58;;;;;;;1.92;0.50;;;22.70;93.30;;;;;;5054536;28;20044;-85
2022/08/01 09:07:25;;;;;;;0.98;0.45;;;22.70;93.10;;;;;;5037583;28;20387;-81
2022/08/01 09:09:51;;;;;;;3.10;0.60;;;22.80;92.70;;;;;;5022087;28;20067;-80
2022/08/01 09:12:19;;;;;;;3.00;0.70;;;22.60;91.90;;;;;;5038157;28;20022;-83
2022/08/01 09:14:46;;;;;;;6.75;1.00;;;22.40;91.90;;;;;;5038213;28;20104;-84
2022/08/01 09:17:12;;;;;;;4.90;1.17;;;22.00;92.10;;;;;;5055686;28;20384;-81
2022/08/01 09:19:47;;;;;;;2.92;0.80;;;21.80;92.50;;;;;;5038439;28;20032;-83
2022/08/01 09:22:17;;;;;;;2.15;0.70;;;21.60;92.90;;;;;;5055810;28;20021;-78
2022/08/01 09:25:01;;;;;;;5.15;0.80;;;21.40;93.20;;;;;;5054310;28;20048;-77
2022/08/01 09:27:27;;;;;;;1.40;0.60;;;21.20;93.50;;;;;;5054151;28;20032;-77
2022/08/01 09:29:53;;;;;;;2.08;0.70;;;21.10;93.70;;;;;;5020661;28;20029;-77
2022/08/01 09:32:20;;;;;;;2.25;0.80;;;21.10;93.90;;;;;;5037047;28;20025;-76
2022/08/01 09:34:48;;;;;;;3.15;0.90;;;21.00;94.30;;;;;;5067745;28;20062;-77
2022/08/01 09:37:17;;;;;;;2.80;0.88;;;20.90;94.30;;;;;;5044690;28;20025;-77
2022/08/01 09:39:45;;;;;;;2.80;0.70;;;20.80;94.50;;;;;;5038288;28;20477;-77
2022/08/01 09:42:24;;;;;;;2.28;0.75;;;20.80;94.70;;;;;;5087676;28;20041;-77
2022/08/01 09:44:50;;;;;;;1.58;0.60;;;20.80;95.10;;;;;;5054395;28;20052;-77
2022/08/01 09:47:18;;;;;;;3.03;1.00;;;20.80;95.10;;;;;;5053811;28;20477;-77
2022/08/01 09:49:45;;;;;;;2.33;1.08;;;20.80;95.30;;;;;;5054119;28;20021;-77
2022/08/01 09:52:16;;;;;;;4.25;1.00;;;20.70;95.40;;;;;;5057267;28;20032;-78
2022/08/01 09:54:44;;;;;;;3.20;1.30;;;20.70;95.40;;;;;;5074898;28;20017;-78
2022/08/01 09:57:10;;;;;;;3.75;1.25;;;20.70;95.70;;;;;;5073439;28;20062;-78
2022/08/01 09:59:40;;;;;;;5.68;1.40;;;20.70;95.70;;;;;;5074867;28;20550;-77
2022/08/01 10:02:05;;;;;;;3.85;1.42;;;20.70;96.00;;;;;;5074809;28;20469;-77
2022/08/01 10:04:31;;;;;;;3.97;1.48;;;20.70;95.80;;;;;;5056615;28;20094;-78
2022/08/01 10:07:05;;;;;;;4.88;1.60;;;20.70;95.80;;;;;;5073711;28;20049;-78
2022/08/01 10:09:36;;;;;;;3.22;1.45;;;20.70;96.00;;;;;;5074661;28;20075;-77
2022/08/01 10:12:04;;;;;;;4.63;1.90;;;20.70;96.10;;;;;;5056514;28;20032;-78
2022/08/01 10:14:30;;;;;;;6.07;1.63;;;20.70;96.20;;;;;;5056648;28;20052;-78
2022/08/01 10:16:57;;;;;;;5.32;1.95;;;20.70;96.20;;;;;;5074444;28;20117;-78
2022/08/01 10:19:25;;;;;;;6.68;2.00;;;20.80;96.30;;;;;;5072445;28;20028;-78
2022/08/01 10:21:53;;;;;;;5.85;2.15;;;20.90;96.40;;;;;;5056842;28;20028;-77
2022/08/01 10:24:23;;;;;;;4.57;1.58;;;20.90;96.40;;;;;;5056274;28;20024;-77
2022/08/01 10:26:52;;;;;;;5.13;1.70;;;21.00;96.50;;;;;;5066113;28;20029;-77
2022/08/01 10:29:20;;;;;;;8.23;1.70;;;21.10;96.60;;;;;;5073910;28;20478;-77
2022/08/01 10:31:49;;;;;;;6.95;2.00;;;21.20;96.60;;;;;;5074087;28;20532;-77
2022/08/01 10:34:18;;;;;;;4.97;1.42;;;21.40;96.60;;;;;;5039684;28;20507;-77
2022/08/01 10:36:45;;;;;;;8.13;1.92;;;21.50;96.40;;;;;;5073913;28;20016;-77
2022/08/01 10:39:12;;;;;;;5.80;1.67;;;21.70;96.30;;;;;;5056226;28;20492;-77
2022/08/01 10:41:41;;;;;;;8.50;2.13;;;21.80;96.10;;;;;;5048740;28;20540;-78
2022/08/01 10:44:08;;;;;;;7.57;1.65;;;22.00;96.00;;;;;;5074359;28;20029;-77
2022/08/01 10:46:38;;;;;;;7.20;1.55;;;22.20;96.10;;;;;;5055015;28;20063;-77
2022/08/01 10:49:15;;;;;;;7.60;1.50;;;22.40;95.50;;;;;;5072626;28;20057;-77
2022/08/01 10:51:41;;;;;;;4.10;0.93;;;22.50;95.20;;;;;;5055794;28;20487;-77
2022/08/01 10:54:09;;;;;;;6.80;1.63;;;22.60;95.20;;;;;;5039656;28;20472;-77
2022/08/01 10:56:46;;;;;;;3.55;0.85;;;22.70;94.50;;;;;;5073782;28;20043;-76
2022/08/01 10:59:30;;;;;;;8.00;1.30;;;22.70;94.00;;;;;;5073689;28;20388;-76
2022/08/01 11:02:04;;;;;;;4.40;1.25;;;22.70;93.60;;;;;;5039419;28;20029;-76
2022/08/01 11:05:00;;;;;;;4.70;1.17;;;22.70;93.50;;;;;;5073408;28;20472;-77
2022/08/01 11:07:53;;;;;;;6.70;1.30;;;22.80;93.40;;;;;;5069775;28;20055;-77
2022/08/01 11:10:24;;;;;;;4.32;1.55;;;22.90;93.30;;;;;;5055605;28;20029;-77
2022/08/01 11:12:50;;;;;;;6.50;1.10;;;23.10;93.10;;;;;;5055499;28;20682;-76
2022/08/01 11:15:24;;;;;;;3.50;1.00;;;23.30;93.00;;;;;;5062255;28;20080;-76
2022/08/01 11:17:51;;;;;;;;;;;23.40;92.70;;;;;;5054433;28;20055;-77
2022/08/01 11:20:32;;;;;;;3.95;0.75;;;23.70;92.50;;;;;;5052370;28;19955;-76
2022/08/01 11:23:01;;;;;;;3.35;1.10;;;23.90;92.30;;;;;;5053477;28;20033;-76
2022/08/01 11:25:35;;;;;;;4.60;0.85;;;24.10;91.80;;;;;;5053723;28;20025;-76
2022/08/01 11:28:25;;;;;;;4.63;1.13;;;24.10;91.10;;;;;;5053686;28;20021;-76
2022/08/01 11:30:54;;;;;;;3.45;0.90;;;24.30;90.70;;;;;;5085520;28;20062;-76
2022/08/01 11:33:44;;;;;;;3.40;0.70;;;24.50;90.70;;;;;;5072145;28;20024;-76
2022/08/01 11:36:13;;;;;;;5.13;1.00;;;24.60;90.10;;;;;;5043539;28;20441;-76
2022/08/01 11:38:46;;;;;;;3.33;0.65;;;24.80;90.10;;;;;;5055587;28;20396;-75
2022/08/01 11:41:25;;;;;;;4.40;1.00;;;24.90;89.60;;;;;;5073575;28;20447;-76
2022/08/01 11:43:57;;;;;;;4.85;1.02;;;25.00;88.40;;;;;;5055450;28;20453;-75
2022/08/01 11:47:01;;;;;;;6.95;1.17;;;25.10;86.70;;;;;;5055133;28;20171;-76
2022/08/01 11:49:33;;;;;;;;;;;25.10;85.10;;;;;;5056336;28;20029;-76
2022/08/01 11:52:09;;;;;;;3.30;0.93;;;25.20;84.90;;;;;;5055453;28;20362;-76
2022/08/01 11:54:47;;;;;;;3.38;0.90;;;25.20;84.50;;;;;;5073003;28;20465;-76
2022/08/01 11:57:17;;;;;;;4.00;0.77;;;25.10;83.80;;;;;;5055179;28;20021;-76
2022/08/01 11:59:49;;;;;;;3.40;0.55;;;25.10;83.00;;;;;;5054992;28;20028;-77
2022/08/01 12:02:26;;;;;;;3.28;0.80;;;25.10;82.50;;;;;;5055107;28;20049;-76
2022/08/01 12:04:54;;;;;;;5.07;0.88;;;25.00;81.50;;;;;;5073030;28;20037;-76
2022/08/01 12:07:20;;;;;;;6.88;0.90;;;24.80;81.10;;;;;;5055047;28;20048;-76
2022/08/01 12:09:47;;;;;;;4.22;0.70;;;24.80;80.80;;;;;;5055188;28;20021;-76
2022/08/01 12:12:17;;;;;;;2.38;0.63;;;24.60;80.20;;;;;;5055268;28;20028;-76
2022/08/01 12:14:44;;;;;;;7.00;1.17;;;24.50;80.30;;;;;;5038885;28;20024;-76
2022/08/01 12:17:10;;;;;;;4.18;0.80;;;24.50;80.70;;;;;;5072595;28;20108;-76
2022/08/01 12:19:36;;;;;;;5.20;0.80;;;24.40;81.30;;;;;;5071434;28;20358;-76
2022/08/01 12:22:14;;;;;;;3.88;0.90;;;24.40;80.60;;;;;;5055009;28;20020;-76
2022/08/01 12:24:41;;;;;;;3.55;0.73;;;24.50;80.70;;;;;;5054632;28;20056;-76
2022/08/01 12:27:09;;;;;;;5.28;0.90;;;24.60;80.50;;;;;;5054931;28;20050;-76
2022/08/01 12:29:40;;;;;;;3.20;0.60;;;24.70;80.30;;;;;;5054976;28;20544;-77
2022/08/01 12:32:26;;;;;;;3.90;0.88;;;24.80;80.20;;;;;;5071337;28;20453;-77
2022/08/01 12:34:54;;;;;;;2.95;0.68;;;25.00;79.40;;;;;;5054197;28;20025;-77
2022/08/01 12:37:20;;;;;;;3.88;0.73;;;25.40;79.70;;;;;;5054962;28;20517;-77
2022/08/01 12:39:47;;;;;;;4.13;0.80;;;25.70;79.10;;;;;;5021289;28;20025;-77
2022/08/01 12:42:14;;;;;;;4.93;0.70;;;26.00;78.00;;;;;;5072044;28;20043;-77
2022/08/01 12:44:42;;;;;;;6.43;0.90;;;26.20;76.70;;;;;;5060323;28;20039;-77
2022/08/01 12:47:10;;;;;;;4.38;0.95;;;26.30;74.90;;;;;;5041349;28;20032;-77
2022/08/01 12:49:37;;;;;;;4.47;0.80;;;26.30;73.70;;;;;;5075865;28;20099;-76
2022/08/01 12:52:03;;;;;;;3.95;0.70;;;26.20;72.90;;;;;;5091611;28;20025;-76